Time;durP1;ratioP1;P1;durP2;ratioP2;P2;SDS_P1;SDS_P2;PMS_P1;PMS_P2;Temp;Humidity;BMP_temperature;BMP_pressure;BME280_temperature;BME280_humidity;BME280_pressure;Samples;Min_cycle;Max_cycle;Signal;HPM_P1;HPM_P2
2022/11/27 00:01:34;;;;;;;5.07;4.57;;;17.30;66.80;;;;;;5017488;28;20335;-70
2022/11/27 00:04:00;;;;;;;4.85;4.45;;;17.40;66.90;;;;;;5033733;28;20221;-70
2022/11/27 00:06:27;;;;;;;6.00;4.82;;;17.40;66.90;;;;;;5050466;28;20187;-69
2022/11/27 00:09:00;;;;;;;5.47;4.97;;;17.30;66.80;;;;;;5033545;28;20186;-69
2022/11/27 00:11:28;;;;;;;5.47;4.65;;;17.30;66.80;;;;;;5034155;28;20175;-70
2022/11/27 00:13:55;;;;;;;4.82;4.43;;;17.40;66.80;;;;;;5034315;28;20239;-70
2022/11/27 00:16:22;;;;;;;5.22;4.72;;;17.30;66.70;;;;;;5041130;28;20190;-70
2022/11/27 00:18:49;;;;;;;4.70;4.30;;;17.30;66.60;;;;;;5037611;28;20201;-70
2022/11/27 00:21:30;;;;;;;5.03;4.60;;;17.30;66.60;;;;;;5020920;28;20218;-70
2022/11/27 00:23:59;;;;;;;4.97;4.50;;;17.30;66.60;;;;;;5037629;28;20248;-70
2022/11/27 00:26:27;;;;;;;4.85;4.22;;;17.30;66.60;;;;;;5021344;28;20224;-70
2022/11/27 00:28:55;;;;;;;4.60;4.18;;;17.30;66.50;;;;;;5053686;28;20182;-69
2022/11/27 00:31:29;;;;;;;4.88;4.40;;;17.30;66.60;;;;;;5020901;28;20186;-69
2022/11/27 00:33:59;;;;;;;5.32;4.50;;;17.30;66.60;;;;;;5037645;28;20221;-70
2022/11/27 00:36:27;;;;;;;4.90;4.50;;;17.40;66.70;;;;;;5037349;28;20179;-70
2022/11/27 00:38:53;;;;;;;5.22;4.72;;;17.30;66.60;;;;;;5037223;28;20232;-70
2022/11/27 00:41:23;;;;;;;5.50;4.90;;;17.30;66.60;;;;;;5037255;28;20283;-70
2022/11/27 00:43:50;;;;;;;5.20;4.70;;;17.30;66.60;;;;;;5037254;28;20644;-69
2022/11/27 00:46:19;;;;;;;4.70;4.15;;;17.30;66.50;;;;;;5055094;28;20248;-69
2022/11/27 00:48:45;;;;;;;5.95;4.88;;;17.30;66.40;;;;;;5036958;28;20190;-70
2022/11/27 00:51:19;;;;;;;4.88;4.45;;;17.30;66.40;;;;;;5020609;28;20210;-70
2022/11/27 00:53:45;;;;;;;5.53;4.95;;;17.30;66.40;;;;;;5037287;28;20210;-70
2022/11/27 00:56:22;;;;;;;5.25;4.75;;;17.30;66.20;;;;;;5053739;28;20186;-70
2022/11/27 00:58:48;;;;;;;4.40;4.00;;;17.30;66.30;;;;;;5020241;28;20642;-70
2022/11/27 01:01:21;;;;;;;4.55;4.15;;;17.30;66.40;;;;;;5054658;28;20242;-70
2022/11/27 01:03:47;;;;;;;4.97;4.50;;;17.30;66.30;;;;;;5020340;28;20234;-69
2022/11/27 01:06:15;;;;;;;4.70;4.20;;;17.30;66.30;;;;;;5037034;28;20183;-70
2022/11/27 01:08:41;;;;;;;4.95;4.50;;;17.30;66.40;;;;;;5036387;28;20193;-70
2022/11/27 01:11:14;;;;;;;5.00;4.50;;;17.30;67.10;;;;;;5036653;28;20281;-70
2022/11/27 01:13:41;;;;;;;4.72;4.32;;;17.30;66.30;;;;;;5053372;28;20245;-70
2022/11/27 01:16:18;;;;;;;4.55;4.15;;;17.30;66.30;;;;;;5036739;28;20190;-69
2022/11/27 01:18:46;;;;;;;4.75;4.25;;;17.30;66.30;;;;;;5036486;28;20241;-70
2022/11/27 01:21:16;;;;;;;4.78;4.38;;;17.30;66.30;;;;;;5019859;28;20686;-70
2022/11/27 01:23:41;;;;;;;4.90;4.40;;;17.30;66.20;;;;;;5036376;28;20206;-70
2022/11/27 01:26:09;;;;;;;4.90;4.40;;;17.30;66.20;;;;;;5019044;28;20228;-69
2022/11/27 01:28:38;;;;;;;5.18;4.78;;;17.30;66.10;;;;;;5040372;28;20188;-70
2022/11/27 01:31:17;;;;;;;4.63;4.20;;;17.30;66.00;;;;;;5056311;28;20182;-70
2022/11/27 01:33:44;;;;;;;4.88;4.47;;;17.30;66.00;;;;;;5056150;28;20201;-70
2022/11/27 01:36:13;;;;;;;4.30;3.90;;;17.30;66.00;;;;;;5056368;28;20193;-70
2022/11/27 01:38:39;;;;;;;4.80;4.40;;;17.30;66.00;;;;;;5056041;28;20197;-70
2022/11/27 01:41:18;;;;;;;4.63;4.07;;;17.30;66.00;;;;;;5052517;28;20209;-70
2022/11/27 01:43:49;;;;;;;5.10;4.60;;;17.30;66.10;;;;;;5056365;28;20228;-70
2022/11/27 01:46:29;;;;;;;4.80;4.40;;;17.30;66.00;;;;;;5073882;28;20213;-70
2022/11/27 01:49:24;;;;;;;4.85;4.45;;;17.30;66.00;;;;;;5055810;28;20211;-69
2022/11/27 01:52:11;;;;;;;4.93;4.43;;;17.30;66.00;;;;;;5032341;28;20209;-70
2022/11/27 01:54:49;;;;;;;4.15;3.83;;;17.30;66.00;;;;;;5038493;28;20209;-70
2022/11/27 01:57:24;;;;;;;4.70;4.28;;;17.30;66.00;;;;;;5072179;28;20189;-69
2022/11/27 01:59:55;;;;;;;4.57;4.18;;;17.30;66.00;;;;;;5039255;28;20205;-70
2022/11/27 02:02:20;;;;;;;4.85;4.35;;;17.30;66.00;;;;;;5073625;28;20177;-70
2022/11/27 02:04:46;;;;;;;4.30;3.90;;;17.30;66.00;;;;;;5038980;28;20216;-70
2022/11/27 02:07:12;;;;;;;4.55;4.15;;;17.30;66.00;;;;;;5055577;28;20257;-70
2022/11/27 02:09:39;;;;;;;4.85;4.35;;;17.20;65.90;;;;;;5055645;28;20192;-70
2022/11/27 02:12:23;;;;;;;4.55;4.15;;;17.30;66.00;;;;;;5038511;28;20264;-70
2022/11/27 02:15:20;;;;;;;4.20;3.80;;;17.30;66.00;;;;;;5055227;28;20209;-69
2022/11/27 02:18:06;;;;;;;4.43;4.03;;;17.40;66.20;;;;;;5054999;28;20196;-69
2022/11/27 02:20:45;;;;;;;4.00;3.60;;;17.30;66.00;;;;;;5055133;28;20316;-70
2022/11/27 02:24:02;;;;;;;4.13;3.72;;;17.30;66.00;;;;;;5072921;28;20220;-70
2022/11/27 02:27:07;;;;;;;4.00;3.58;;;17.30;66.00;;;;;;5038509;28;20181;-70
2022/11/27 02:29:35;;;;;;;3.70;3.40;;;17.30;66.00;;;;;;5071805;28;20181;-70
2022/11/27 02:32:57;;;;;;;3.80;3.50;;;17.30;66.00;;;;;;5071828;28;20268;-70
2022/11/27 02:35:59;;;;;;;3.95;3.50;;;17.30;66.00;;;;;;5050299;28;20229;-70
2022/11/27 02:38:50;;;;;;;3.40;3.10;;;17.30;66.00;;;;;;5038286;28;20185;-70
2022/11/27 02:41:28;;;;;;;3.75;3.45;;;17.30;66.00;;;;;;5054892;28;20696;-70
2022/11/27 02:43:57;;;;;;;4.15;3.53;;;17.30;66.00;;;;;;5038309;28;20222;-70
2022/11/27 02:46:26;;;;;;;3.50;3.20;;;17.30;66.00;;;;;;5071423;28;20269;-70
2022/11/27 02:48:58;;;;;;;3.75;3.42;;;17.30;66.10;;;;;;5054544;28;20193;-70
2022/11/27 02:51:36;;;;;;;4.80;3.17;;;17.30;66.10;;;;;;5054985;28;20182;-70
2022/11/27 02:54:06;;;;;;;3.35;3.05;;;17.30;66.00;;;;;;5054644;28;20204;-70
2022/11/27 02:56:34;;;;;;;3.60;3.25;;;17.30;66.00;;;;;;5054641;28;20184;-70
2022/11/27 02:59:07;;;;;;;3.15;2.85;;;17.30;66.10;;;;;;5037830;28;20205;-70
2022/11/27 03:01:41;;;;;;;3.30;3.00;;;17.30;66.00;;;;;;5038107;28;20266;-70
2022/11/27 03:04:15;;;;;;;3.65;3.30;;;17.30;66.10;;;;;;5073476;28;20272;-70
2022/11/27 03:06:54;;;;;;;3.35;3.05;;;17.30;66.10;;;;;;5054558;28;20295;-70
2022/11/27 03:09:41;;;;;;;3.38;2.88;;;17.30;66.10;;;;;;5054334;28;20185;-70
2022/11/27 03:12:10;;;;;;;3.40;3.10;;;17.30;66.00;;;;;;5054528;28;20622;-70
2022/11/27 03:14:41;;;;;;;3.53;3.05;;;17.30;66.10;;;;;;5037820;28;20204;-70
2022/11/27 03:17:30;;;;;;;3.58;3.05;;;17.30;66.10;;;;;;5071936;28;20224;-69
2022/11/27 03:20:07;;;;;;;3.45;3.15;;;17.40;66.20;;;;;;5069582;28;20231;-70
2022/11/27 03:22:33;;;;;;;3.30;3.00;;;17.30;66.20;;;;;;5071679;28;20181;-70
2022/11/27 03:24:59;;;;;;;3.13;2.60;;;17.30;66.20;;;;;;5037537;28;20618;-69
2022/11/27 03:27:43;;;;;;;3.10;2.90;;;17.30;66.10;;;;;;5053717;28;20236;-69
2022/11/27 03:30:11;;;;;;;3.03;2.83;;;17.40;66.20;;;;;;5051863;28;20185;-69
2022/11/27 03:32:37;;;;;;;3.70;3.40;;;17.30;66.20;;;;;;5054085;28;20242;-70
2022/11/27 03:35:07;;;;;;;3.60;3.30;;;17.30;66.20;;;;;;5036204;28;20213;-70
2022/11/27 03:37:33;;;;;;;3.47;3.05;;;17.30;66.20;;;;;;5019400;28;20186;-70
2022/11/27 03:39:59;;;;;;;3.63;3.30;;;17.30;66.00;;;;;;5051850;28;20217;-70
2022/11/27 03:42:36;;;;;;;3.00;2.80;;;17.30;66.10;;;;;;5017709;28;20182;-70
2022/11/27 03:45:54;;;;;;;3.45;2.78;;;17.30;66.10;;;;;;5033793;28;20206;-69
2022/11/27 03:48:35;;;;;;;3.50;3.20;;;17.30;66.20;;;;;;5051246;28;20225;-69
2022/11/27 03:51:45;;;;;;;3.50;3.20;;;17.30;66.20;;;;;;5033959;28;20192;-69
2022/11/27 03:54:55;;;;;;;4.28;3.28;;;17.30;66.10;;;;;;5013531;28;20226;-70
2022/11/27 03:57:46;;;;;;;3.05;2.85;;;17.30;66.10;;;;;;5051287;28;20178;-69
2022/11/27 04:00:13;;;;;;;3.20;3.00;;;17.30;66.30;;;;;;5034017;28;20712;-69
2022/11/27 04:02:51;;;;;;;3.67;3.38;;;17.30;66.20;;;;;;5017483;28;20187;-70
2022/11/27 04:05:18;;;;;;;3.45;3.15;;;17.30;66.20;;;;;;5017740;28;20190;-69
2022/11/27 04:07:44;;;;;;;3.50;3.20;;;17.30;66.20;;;;;;5050061;28;20198;-69
2022/11/27 04:10:11;;;;;;;3.55;3.22;;;17.30;66.20;;;;;;5033692;28;20276;-70
2022/11/27 04:12:37;;;;;;;3.28;3.00;;;17.30;66.30;;;;;;5033934;28;20192;-70
2022/11/27 04:15:04;;;;;;;3.67;3.03;;;17.30;66.10;;;;;;5033742;28;20198;-70
2022/11/27 04:17:30;;;;;;;3.45;3.15;;;17.30;66.10;;;;;;5033497;28;20183;-69
2022/11/27 04:19:56;;;;;;;3.33;3.03;;;17.30;66.20;;;;;;5033818;28;20293;-70
2022/11/27 04:22:22;;;;;;;3.10;2.80;;;17.30;66.10;;;;;;5034653;28;20281;-70
2022/11/27 04:24:48;;;;;;;4.30;3.20;;;17.30;66.20;;;;;;5053432;28;20259;-69
2022/11/27 04:27:14;;;;;;;3.85;3.45;;;17.30;66.20;;;;;;5053311;28;20190;-69
2022/11/27 04:29:40;;;;;;;3.38;3.08;;;17.30;66.30;;;;;;5047225;28;20183;-70
2022/11/27 04:32:06;;;;;;;3.30;3.00;;;17.30;66.20;;;;;;5033830;28;20214;-70
2022/11/27 04:34:31;;;;;;;2.90;2.60;;;17.30;66.20;;;;;;5017074;28;20279;-70
2022/11/27 04:36:58;;;;;;;3.40;3.10;;;17.30;66.30;;;;;;5017158;28;20182;-69
2022/11/27 04:39:23;;;;;;;3.53;3.22;;;17.30;66.20;;;;;;5051108;28;20238;-70
2022/11/27 04:41:49;;;;;;;3.35;2.83;;;17.30;66.10;;;;;;5033391;28;20178;-70
2022/11/27 04:44:15;;;;;;;3.38;3.08;;;17.30;66.10;;;;;;5017060;28;20263;-70
2022/11/27 04:46:42;;;;;;;3.60;3.35;;;17.30;66.10;;;;;;5051235;28;20182;-70
2022/11/27 04:49:09;;;;;;;3.40;3.10;;;17.30;66.00;;;;;;5051038;28;20269;-69
2022/11/27 04:51:35;;;;;;;3.67;3.38;;;17.30;66.00;;;;;;5033625;28;20182;-69
2022/11/27 04:54:02;;;;;;;3.42;3.13;;;17.30;66.00;;;;;;5033276;28;20210;-70
2022/11/27 04:56:27;;;;;;;3.75;3.45;;;17.30;66.00;;;;;;5033300;28;20189;-70
2022/11/27 04:58:53;;;;;;;3.33;3.08;;;17.30;66.00;;;;;;5033488;28;20183;-70
2022/11/27 05:01:19;;;;;;;3.58;3.28;;;17.30;66.10;;;;;;5036054;28;20210;-70
2022/11/27 05:03:47;;;;;;;3.60;3.20;;;17.30;66.00;;;;;;5054577;28;20344;-70
2022/11/27 05:06:12;;;;;;;3.60;3.15;;;17.30;66.00;;;;;;5037019;28;20186;-70
2022/11/27 05:08:38;;;;;;;3.65;3.35;;;17.30;66.00;;;;;;5020061;28;20190;-70
2022/11/27 05:11:13;;;;;;;4.00;3.70;;;17.30;66.00;;;;;;5036705;28;20186;-70
2022/11/27 05:13:39;;;;;;;3.75;3.45;;;17.30;66.00;;;;;;5053341;28;20205;-70
2022/11/27 05:16:05;;;;;;;3.72;3.40;;;17.30;66.00;;;;;;5036732;28;20186;-70
2022/11/27 05:18:31;;;;;;;3.30;3.00;;;17.30;65.90;;;;;;5036623;28;20190;-70
2022/11/27 05:21:07;;;;;;;3.75;3.17;;;17.30;65.90;;;;;;5036419;28;20202;-70
2022/11/27 05:23:34;;;;;;;3.47;3.17;;;17.30;66.00;;;;;;5019995;28;20206;-70
2022/11/27 05:26:00;;;;;;;3.08;2.88;;;17.30;66.00;;;;;;5036352;28;20613;-70
2022/11/27 05:28:26;;;;;;;3.47;3.17;;;17.30;66.00;;;;;;5036191;28;20182;-70
2022/11/27 05:30:52;;;;;;;3.30;3.05;;;17.30;66.00;;;;;;5073792;28;20193;-70
2022/11/27 05:33:18;;;;;;;3.42;3.13;;;17.30;66.00;;;;;;5074231;28;20209;-70
2022/11/27 05:35:44;;;;;;;3.47;3.17;;;17.30;66.00;;;;;;5072892;28;20567;-70
2022/11/27 05:38:11;;;;;;;3.47;3.17;;;17.30;65.90;;;;;;5039459;28;20182;-69
2022/11/27 05:40:38;;;;;;;2.95;2.75;;;17.30;65.80;;;;;;5056439;28;20221;-70
2022/11/27 05:43:04;;;;;;;3.10;2.80;;;17.30;65.90;;;;;;5056210;28;20205;-70
2022/11/27 05:45:29;;;;;;;3.30;2.95;;;17.30;65.80;;;;;;5039342;28;20645;-70
2022/11/27 05:47:55;;;;;;;3.25;2.95;;;17.30;65.90;;;;;;5055887;28;20257;-70
2022/11/27 05:50:21;;;;;;;3.22;2.92;;;17.30;65.80;;;;;;5039448;28;20193;-70
2022/11/27 05:52:47;;;;;;;3.17;2.88;;;17.30;65.90;;;;;;5056159;28;20190;-70
2022/11/27 05:55:13;;;;;;;3.40;3.10;;;17.30;65.90;;;;;;5055845;28;20272;-70
2022/11/27 05:57:38;;;;;;;3.28;2.97;;;17.30;65.70;;;;;;5055775;28;20188;-70
2022/11/27 06:00:06;;;;;;;2.90;2.70;;;17.30;65.70;;;;;;5039077;28;20209;-69
2022/11/27 06:02:32;;;;;;;3.38;2.97;;;17.30;65.80;;;;;;5055978;28;20181;-69
2022/11/27 06:04:57;;;;;;;3.20;2.90;;;17.30;65.70;;;;;;5055818;28;20217;-69
2022/11/27 06:07:23;;;;;;;2.70;2.50;;;17.30;65.80;;;;;;5039351;28;20182;-70
2022/11/27 06:09:49;;;;;;;2.83;2.63;;;17.30;65.70;;;;;;5055653;28;20181;-70
2022/11/27 06:12:15;;;;;;;3.08;2.78;;;17.30;65.80;;;;;;5038386;28;20196;-70
2022/11/27 06:14:40;;;;;;;3.97;2.97;;;17.30;65.80;;;;;;5038830;28;20205;-70
2022/11/27 06:17:06;;;;;;;3.25;2.70;;;17.20;65.70;;;;;;5038749;28;20190;-70
2022/11/27 06:19:32;;;;;;;2.88;2.67;;;17.30;65.70;;;;;;5073064;28;20193;-70
2022/11/27 06:21:57;;;;;;;2.75;2.55;;;17.20;65.70;;;;;;5073392;28;20256;-70
2022/11/27 06:24:23;;;;;;;2.70;2.50;;;17.30;65.70;;;;;;5055299;28;20200;-70
2022/11/27 06:26:49;;;;;;;2.80;2.60;;;17.30;65.70;;;;;;5073093;28;20282;-69
2022/11/27 06:29:15;;;;;;;2.95;2.70;;;17.20;65.50;;;;;;5055109;28;20203;-70
2022/11/27 06:31:41;;;;;;;3.10;2.80;;;17.30;65.60;;;;;;5073040;28;20182;-70
2022/11/27 06:34:06;;;;;;;2.72;2.53;;;17.30;65.60;;;;;;5054736;28;20198;-70
2022/11/27 06:36:36;;;;;;;3.30;3.00;;;17.30;65.50;;;;;;5054826;28;20227;-69
2022/11/27 06:39:04;;;;;;;2.90;2.58;;;17.30;66.30;;;;;;5038160;28;20190;-69
2022/11/27 06:41:31;;;;;;;3.10;2.80;;;17.30;65.50;;;;;;5072685;28;20264;-70
2022/11/27 06:43:59;;;;;;;2.65;2.45;;;17.30;65.50;;;;;;5054694;28;20193;-70
2022/11/27 06:46:26;;;;;;;2.53;2.33;;;17.20;65.40;;;;;;5055169;28;20190;-70
2022/11/27 06:48:54;;;;;;;3.13;2.90;;;17.30;65.50;;;;;;5038071;28;20181;-69
2022/11/27 06:51:23;;;;;;;4.13;2.88;;;17.20;65.40;;;;;;5071852;28;20280;-69
2022/11/27 06:53:51;;;;;;;2.90;2.70;;;17.20;65.40;;;;;;5054762;28;20241;-70
2022/11/27 06:56:21;;;;;;;3.22;3.00;;;17.20;65.40;;;;;;5054788;28;20235;-69
2022/11/27 06:58:51;;;;;;;3.30;3.00;;;17.20;65.40;;;;;;5054634;28;20285;-70
2022/11/27 07:01:18;;;;;;;2.85;2.55;;;17.20;65.40;;;;;;5054660;28;20213;-70
2022/11/27 07:03:43;;;;;;;3.33;2.75;;;17.20;65.40;;;;;;5072254;28;20677;-70
2022/11/27 07:06:14;;;;;;;3.22;2.90;;;17.20;65.40;;;;;;5037972;28;20219;-69
2022/11/27 07:08:40;;;;;;;3.17;2.90;;;17.20;65.30;;;;;;5072184;28;20188;-69
2022/11/27 07:11:10;;;;;;;3.20;2.90;;;17.20;65.30;;;;;;5037773;28;20196;-69
2022/11/27 07:13:36;;;;;;;3.30;3.00;;;17.20;65.20;;;;;;5037692;28;20267;-69
2022/11/27 07:16:06;;;;;;;3.35;2.95;;;17.20;65.30;;;;;;5071225;28;20190;-69
2022/11/27 07:18:40;;;;;;;3.10;2.90;;;17.20;65.20;;;;;;5071015;28;20177;-70
2022/11/27 07:21:07;;;;;;;3.15;2.95;;;17.20;65.20;;;;;;5037721;28;20214;-69
2022/11/27 07:23:33;;;;;;;3.25;2.95;;;17.20;65.20;;;;;;5070123;28;20201;-69
2022/11/27 07:26:09;;;;;;;3.38;3.08;;;17.20;65.30;;;;;;5037754;28;20181;-70
2022/11/27 07:28:35;;;;;;;3.20;2.92;;;17.20;65.10;;;;;;5072052;28;20265;-70
2022/11/27 07:31:02;;;;;;;3.50;3.20;;;17.20;65.10;;;;;;5054513;28;20189;-70
2022/11/27 07:33:27;;;;;;;3.53;2.90;;;17.20;65.20;;;;;;5072269;28;20201;-69
2022/11/27 07:36:12;;;;;;;2.95;2.75;;;17.20;65.20;;;;;;5037683;28;20182;-70
2022/11/27 07:38:38;;;;;;;3.17;2.97;;;17.20;65.30;;;;;;5054563;28;20588;-70
2022/11/27 07:41:05;;;;;;;3.33;3.00;;;17.20;65.10;;;;;;5071173;28;20204;-70
2022/11/27 07:43:33;;;;;;;3.30;3.00;;;17.20;65.10;;;;;;5072199;28;20193;-70
2022/11/27 07:46:04;;;;;;;3.00;2.80;;;17.20;65.10;;;;;;5037607;28;20656;-70
2022/11/27 07:48:30;;;;;;;3.47;3.20;;;17.30;65.20;;;;;;5071153;28;20180;-70
2022/11/27 07:50:56;;;;;;;3.13;2.83;;;17.20;65.10;;;;;;5037919;28;20273;-70
2022/11/27 07:53:21;;;;;;;3.45;3.17;;;17.20;65.00;;;;;;5037573;28;20216;-70
2022/11/27 07:55:47;;;;;;;3.03;2.83;;;17.20;65.10;;;;;;5037549;28;20196;-70
2022/11/27 07:58:13;;;;;;;3.58;3.28;;;17.20;65.10;;;;;;5037343;28;20226;-70
2022/11/27 08:00:39;;;;;;;3.50;3.20;;;17.20;65.00;;;;;;5037831;28;20244;-70
2022/11/27 08:03:05;;;;;;;3.90;3.15;;;17.20;65.00;;;;;;5037426;28;20192;-69
2022/11/27 08:05:34;;;;;;;3.47;3.17;;;17.20;65.00;;;;;;5054458;28;20250;-70
2022/11/27 08:08:03;;;;;;;3.72;3.42;;;17.20;65.00;;;;;;5070753;28;20189;-70
2022/11/27 08:10:30;;;;;;;3.25;3.00;;;17.20;65.00;;;;;;5037352;28;20181;-70
2022/11/27 08:12:57;;;;;;;3.55;3.25;;;17.30;65.20;;;;;;5054007;28;20189;-70
2022/11/27 08:15:23;;;;;;;3.40;3.10;;;17.30;65.20;;;;;;5054450;28;20194;-70
2022/11/27 08:17:48;;;;;;;2.88;2.67;;;17.20;65.10;;;;;;5054082;28;20197;-70
2022/11/27 08:20:14;;;;;;;3.50;3.20;;;17.20;65.00;;;;;;5037241;28;20205;-69
2022/11/27 08:22:40;;;;;;;3.45;3.22;;;17.20;65.10;;;;;;5037423;28;20202;-70
2022/11/27 08:25:06;;;;;;;3.42;3.13;;;17.20;65.10;;;;;;5037143;28;20271;-70
2022/11/27 08:27:32;;;;;;;3.90;3.33;;;17.20;65.30;;;;;;5054627;28;20182;-70
2022/11/27 08:29:59;;;;;;;3.50;3.20;;;17.20;65.10;;;;;;5054360;28;20192;-71
2022/11/27 08:32:25;;;;;;;4.03;3.63;;;17.20;65.10;;;;;;5071933;28;20185;-70
2022/11/27 08:34:51;;;;;;;3.70;3.40;;;17.30;65.20;;;;;;5034818;28;20213;-70
2022/11/27 08:37:16;;;;;;;4.28;3.88;;;17.30;65.20;;;;;;5055696;28;20185;-70
2022/11/27 08:39:42;;;;;;;3.97;3.22;;;17.20;65.10;;;;;;5053455;28;20236;-70
2022/11/27 08:42:08;;;;;;;3.80;3.40;;;17.20;65.10;;;;;;5057886;28;20194;-70
2022/11/27 08:44:33;;;;;;;4.25;3.60;;;17.20;65.10;;;;;;5041279;28;20297;-70
2022/11/27 08:46:59;;;;;;;4.00;3.67;;;17.30;65.30;;;;;;5075668;28;20178;-69
2022/11/27 08:49:25;;;;;;;4.38;3.72;;;17.30;65.20;;;;;;5040792;28;20174;-70
2022/11/27 08:51:50;;;;;;;3.78;3.38;;;17.20;65.10;;;;;;5074153;28;20189;-70
2022/11/27 08:54:16;;;;;;;4.43;4.03;;;17.30;65.20;;;;;;5057733;28;20300;-71
2022/11/27 08:56:42;;;;;;;4.65;4.20;;;17.30;65.20;;;;;;5040962;28;20568;-70
2022/11/27 08:59:08;;;;;;;4.15;3.75;;;17.30;65.20;;;;;;5073968;28;20645;-70
2022/11/27 09:01:34;;;;;;;4.88;4.20;;;17.30;65.10;;;;;;5041061;28;20202;-70
2022/11/27 09:04:00;;;;;;;4.80;4.30;;;17.30;65.10;;;;;;5041853;28;20209;-70
2022/11/27 09:06:30;;;;;;;5.45;3.80;;;17.30;65.10;;;;;;5040894;28;20185;-71
2022/11/27 09:09:02;;;;;;;4.68;4.20;;;17.30;65.90;;;;;;5056743;28;20182;-70
2022/11/27 09:11:30;;;;;;;4.57;4.00;;;17.30;65.20;;;;;;5056871;28;20184;-70
2022/11/27 09:13:59;;;;;;;5.93;4.40;;;17.30;65.10;;;;;;5040232;28;20202;-70
2022/11/27 09:16:25;;;;;;;4.63;4.13;;;17.30;65.20;;;;;;5057178;28;20272;-70
2022/11/27 09:18:53;;;;;;;4.22;3.83;;;17.30;65.10;;;;;;5057027;28;20274;-71
2022/11/27 09:21:22;;;;;;;4.60;4.15;;;17.30;65.20;;;;;;5040175;28;20256;-70
2022/11/27 09:23:54;;;;;;;4.32;3.92;;;17.30;65.20;;;;;;5040601;28;20224;-70
2022/11/27 09:26:22;;;;;;;3.85;3.50;;;17.30;65.20;;;;;;5073818;28;20162;-70
2022/11/27 09:28:48;;;;;;;4.45;4.00;;;17.30;65.10;;;;;;5040116;28;20563;-71
2022/11/27 09:31:15;;;;;;;4.90;4.05;;;17.30;65.10;;;;;;5073551;28;20185;-70
2022/11/27 09:33:43;;;;;;;4.22;3.83;;;17.30;65.20;;;;;;5073562;28;20213;-70
2022/11/27 09:36:16;;;;;;;4.38;3.90;;;17.30;65.20;;;;;;5056913;28;20185;-71
2022/11/27 09:38:43;;;;;;;4.35;3.90;;;17.30;65.10;;;;;;5056833;28;20181;-70
2022/11/27 09:41:42;;;;;;;4.20;3.80;;;17.30;65.10;;;;;;5056677;28;20205;-70
2022/11/27 09:44:29;;;;;;;4.30;3.90;;;17.30;65.10;;;;;;5056541;28;20204;-70
2022/11/27 09:46:59;;;;;;;4.03;3.70;;;17.30;65.20;;;;;;5055941;28;20190;-70
2022/11/27 09:49:41;;;;;;;3.97;3.58;;;17.30;65.90;;;;;;5056366;28;20189;-70
2022/11/27 09:52:23;;;;;;;4.97;3.72;;;17.40;65.30;;;;;;5056435;28;20182;-70
2022/11/27 09:55:12;;;;;;;3.63;3.15;;;17.30;65.10;;;;;;5056451;28;20213;-70
2022/11/27 09:57:40;;;;;;;3.60;3.30;;;17.30;65.10;;;;;;5056670;28;20188;-70
2022/11/27 10:00:17;;;;;;;4.00;3.17;;;17.40;65.30;;;;;;5056232;28;20263;-70
2022/11/27 10:02:43;;;;;;;3.85;3.42;;;17.40;65.30;;;;;;5072903;28;20231;-70
2022/11/27 10:05:27;;;;;;;3.22;2.92;;;17.30;65.20;;;;;;5072649;28;20587;-70
2022/11/27 10:08:46;;;;;;;3.45;3.15;;;17.40;65.30;;;;;;5073957;28;20170;-69
2022/11/27 10:11:40;;;;;;;3.60;3.20;;;17.40;65.30;;;;;;5072786;28;20193;-70
2022/11/27 10:14:36;;;;;;;4.43;3.15;;;17.40;65.30;;;;;;5055988;28;20216;-70
2022/11/27 10:17:39;;;;;;;3.30;3.00;;;17.40;65.30;;;;;;5056301;28;20272;-70
2022/11/27 10:20:42;;;;;;;3.20;2.90;;;17.40;65.30;;;;;;5073574;28;20291;-70
2022/11/27 10:23:52;;;;;;;3.25;2.95;;;17.40;65.30;;;;;;5056125;28;20196;-70
2022/11/27 10:26:27;;;;;;;3.20;2.90;;;17.40;65.30;;;;;;5025508;28;20199;-70
2022/11/27 10:29:09;;;;;;;4.40;3.08;;;17.40;65.20;;;;;;5072589;28;20185;-70
2022/11/27 10:31:48;;;;;;;2.83;2.63;;;17.40;65.30;;;;;;5038472;28;20182;-70
2022/11/27 10:34:44;;;;;;;2.60;2.40;;;17.40;65.40;;;;;;5039486;28;20205;-71
2022/11/27 10:37:36;;;;;;;3.22;2.80;;;17.40;65.40;;;;;;5055846;28;20184;-70
2022/11/27 10:40:14;;;;;;;2.90;2.60;;;17.40;65.30;;;;;;5032725;28;20236;-71
2022/11/27 10:43:07;;;;;;;3.80;2.50;;;17.40;65.20;;;;;;5073712;28;20185;-70
2022/11/27 10:45:57;;;;;;;2.42;2.22;;;17.40;65.30;;;;;;5046232;28;20623;-70
2022/11/27 10:48:24;;;;;;;2.72;2.53;;;17.40;65.40;;;;;;5055357;28;20177;-70
2022/11/27 10:50:50;;;;;;;3.53;2.47;;;17.40;65.40;;;;;;5038905;28;20190;-70
2022/11/27 10:53:34;;;;;;;2.45;2.25;;;17.40;66.10;;;;;;5038661;28;20202;-70
2022/11/27 10:56:14;;;;;;;2.42;2.22;;;17.40;65.30;;;;;;5073727;28;20200;-70
2022/11/27 10:59:04;;;;;;;3.13;2.53;;;17.40;65.30;;;;;;5055203;28;20192;-70
2022/11/27 11:01:44;;;;;;;2.63;2.42;;;17.40;65.20;;;;;;5072243;28;20198;-70
2022/11/27 11:04:14;;;;;;;2.53;2.33;;;17.40;65.30;;;;;;5055385;28;20209;-70
2022/11/27 11:06:47;;;;;;;2.75;2.55;;;17.40;65.30;;;;;;5055281;28;20170;-70
2022/11/27 11:09:29;;;;;;;2.60;2.40;;;17.40;65.30;;;;;;5074805;28;20182;-71
2022/11/27 11:12:20;;;;;;;3.47;2.20;;;17.40;65.30;;;;;;5038537;28;20216;-71
2022/11/27 11:14:58;;;;;;;2.60;2.40;;;17.40;65.30;;;;;;5046698;28;20225;-70
2022/11/27 11:17:36;;;;;;;2.40;2.20;;;17.40;65.30;;;;;;5054783;28;20249;-70
2022/11/27 11:20:21;;;;;;;2.50;2.30;;;17.40;65.30;;;;;;5063448;28;20249;-70
2022/11/27 11:22:48;;;;;;;2.33;2.13;;;17.40;65.20;;;;;;5037837;28;20173;-70
2022/11/27 11:25:20;;;;;;;2.03;1.92;;;17.40;65.20;;;;;;5072164;28;20227;-71
2022/11/27 11:27:49;;;;;;;2.33;2.13;;;17.40;65.10;;;;;;5054389;28;20182;-70
2022/11/27 11:30:27;;;;;;;2.15;1.95;;;17.50;65.30;;;;;;5056716;28;20190;-70
2022/11/27 11:33:01;;;;;;;2.20;1.95;;;17.40;65.20;;;;;;5072751;28;20228;-69
2022/11/27 11:35:33;;;;;;;1.85;1.65;;;17.40;65.30;;;;;;5071110;28;20185;-70
2022/11/27 11:38:03;;;;;;;2.67;2.22;;;17.50;65.30;;;;;;5062301;28;20181;-70
2022/11/27 11:40:34;;;;;;;2.38;2.17;;;17.50;65.30;;;;;;5053773;28;20210;-70
2022/11/27 11:43:20;;;;;;;2.20;2.00;;;17.50;65.30;;;;;;5062539;28;20174;-70
2022/11/27 11:45:47;;;;;;;2.35;2.15;;;17.50;65.30;;;;;;5069463;28;20182;-71
2022/11/27 11:48:27;;;;;;;2.42;1.80;;;17.50;65.20;;;;;;5052607;28;20615;-69
2022/11/27 11:51:12;;;;;;;2.38;2.03;;;17.50;65.30;;;;;;5054375;28;20169;-70
2022/11/27 11:53:43;;;;;;;2.22;2.00;;;17.50;65.20;;;;;;5067943;28;20282;-70
2022/11/27 11:56:32;;;;;;;2.20;2.00;;;17.50;65.10;;;;;;5061888;28;20236;-70
2022/11/27 11:59:28;;;;;;;2.10;1.98;;;17.40;65.20;;;;;;5072120;28;20203;-69
2022/11/27 12:02:34;;;;;;;1.98;1.80;;;17.50;65.20;;;;;;5054665;28;20213;-70
2022/11/27 12:05:24;;;;;;;2.05;1.85;;;17.50;65.20;;;;;;5040392;28;20232;-70
2022/11/27 12:08:11;;;;;;;1.77;1.67;;;17.50;65.20;;;;;;5051300;28;20248;-70
2022/11/27 12:11:18;;;;;;;2.55;1.98;;;17.50;65.10;;;;;;5052840;28;20166;-70
2022/11/27 12:14:28;;;;;;;2.35;2.00;;;17.50;65.20;;;;;;5032485;28;20304;-70
2022/11/27 12:17:09;;;;;;;1.80;1.70;;;17.50;65.20;;;;;;5065625;28;20189;-70
2022/11/27 12:20:05;;;;;;;2.10;1.90;;;17.50;65.20;;;;;;5058198;28;20660;-69
2022/11/27 12:22:39;;;;;;;2.22;1.98;;;17.50;65.50;;;;;;5041990;28;20258;-70
2022/11/27 12:25:19;;;;;;;2.00;1.88;;;17.50;65.20;;;;;;5076019;28;20202;-70
2022/11/27 12:28:19;;;;;;;1.55;1.45;;;17.50;65.10;;;;;;5076437;28;20226;-70
2022/11/27 12:31:10;;;;;;;1.95;1.80;;;17.50;65.00;;;;;;5058004;28;20196;-70
2022/11/27 12:34:08;;;;;;;1.90;1.80;;;17.50;65.10;;;;;;5041474;28;20704;-70
2022/11/27 12:37:33;;;;;;;2.38;2.10;;;17.50;65.10;;;;;;5046049;28;20189;-70
2022/11/27 12:40:45;;;;;;;2.20;2.00;;;17.50;65.10;;;;;;5050930;28;20222;-70
2022/11/27 12:43:23;;;;;;;2.25;2.03;;;17.50;65.10;;;;;;5037728;28;20301;-70
2022/11/27 12:46:40;;;;;;;2.90;1.83;;;17.50;65.10;;;;;;5021727;28;20703;-70
2022/11/27 12:49:43;;;;;;;2.00;1.80;;;17.50;65.00;;;;;;5021001;28;20186;-70
2022/11/27 12:52:37;;;;;;;1.98;1.77;;;17.50;65.10;;;;;;5021583;28;20183;-70
2022/11/27 12:55:22;;;;;;;2.10;1.90;;;17.50;65.10;;;;;;5037803;28;20714;-70
2022/11/27 12:58:00;;;;;;;2.30;2.13;;;17.50;65.10;;;;;;5021483;28;20232;-70
2022/11/27 13:00:29;;;;;;;2.20;2.00;;;17.50;65.00;;;;;;5021306;28;20210;-70
2022/11/27 13:03:19;;;;;;;1.90;1.70;;;17.50;65.10;;;;;;5037412;28;20182;-70
2022/11/27 13:06:18;;;;;;;1.80;1.70;;;17.50;65.10;;;;;;5045174;28;20661;-70
2022/11/27 13:09:04;;;;;;;2.10;1.80;;;17.50;65.00;;;;;;5074887;28;20170;-70
2022/11/27 13:11:39;;;;;;;2.28;1.85;;;17.50;65.10;;;;;;5057570;28;20193;-70
2022/11/27 13:14:26;;;;;;;2.03;1.83;;;17.50;65.10;;;;;;5040495;28;20204;-69
2022/11/27 13:16:59;;;;;;;2.05;1.90;;;17.50;65.10;;;;;;5075002;28;20205;-70
2022/11/27 13:19:34;;;;;;;2.00;1.80;;;17.50;65.00;;;;;;5056980;28;20242;-70
2022/11/27 13:22:08;;;;;;;1.95;1.80;;;17.50;65.00;;;;;;5055632;28;20213;-70
2022/11/27 13:24:35;;;;;;;1.70;1.60;;;17.50;65.00;;;;;;5040302;28;20760;-70